sensor_id;sensor_type;location;lat;lon;timestamp;pressure;altitude;pressure_sealevel;temperature;humidity
64352;BME280;50680;52.626;-8.668;2023-07-13T00:01:53;101436.00;;;14.16;100.00
64352;BME280;50680;52.626;-8.668;2023-07-13T00:04:22;101435.91;;;14.18;100.00
64352;BME280;50680;52.626;-8.668;2023-07-13T00:06:52;101430.34;;;14.22;100.00
64352;BME280;50680;52.626;-8.668;2023-07-13T00:09:21;101421.75;;;14.19;100.00
64352;BME280;50680;52.626;-8.668;2023-07-13T00:11:55;101432.84;;;14.24;100.00
64352;BME280;50680;52.626;-8.668;2023-07-13T00:14:23;101426.75;;;14.23;100.00
64352;BME280;50680;52.626;-8.668;2023-07-13T00:16:50;101427.47;;;14.25;100.00
64352;BME280;50680;52.626;-8.668;2023-07-13T00:19:18;101439.84;;;14.25;100.00
64352;BME280;50680;52.626;-8.668;2023-07-13T00:21:45;101433.53;;;14.27;100.00
64352;BME280;50680;52.626;-8.668;2023-07-13T00:24:14;101431.75;;;14.28;100.00
64352;BME280;50680;52.626;-8.668;2023-07-13T00:26:42;101433.31;;;14.30;100.00
64352;BME280;50680;52.626;-8.668;2023-07-13T00:29:13;101434.38;;;14.28;100.00
64352;BME280;50680;52.626;-8.668;2023-07-13T00:31:40;101433.31;;;14.30;100.00
64352;BME280;50680;52.626;-8.668;2023-07-13T00:34:07;101435.88;;;14.32;100.00
64352;BME280;50680;52.626;-8.668;2023-07-13T00:36:34;101437.56;;;14.33;100.00
64352;BME280;50680;52.626;-8.668;2023-07-13T00:39:02;101438.22;;;14.37;100.00
64352;BME280;50680;52.626;-8.668;2023-07-13T00:41:31;101440.66;;;14.40;100.00
64352;BME280;50680;52.626;-8.668;2023-07-13T00:43:58;101429.25;;;14.39;100.00
64352;BME280;50680;52.626;-8.668;2023-07-13T00:46:34;101434.44;;;14.41;100.00
64352;BME280;50680;52.626;-8.668;2023-07-13T00:49:05;101439.69;;;14.41;100.00
64352;BME280;50680;52.626;-8.668;2023-07-13T00:54:14;101431.59;;;14.44;100.00
64352;BME280;50680;52.626;-8.668;2023-07-13T00:56:43;101436.78;;;14.45;100.00
64352;BME280;50680;52.626;-8.668;2023-07-13T00:59:12;101436.03;;;14.43;100.00
64352;BME280;50680;52.626;-8.668;2023-07-13T01:01:40;101431.59;;;14.44;100.00
64352;BME280;50680;52.626;-8.668;2023-07-13T01:04:08;101424.53;;;14.44;100.00
64352;BME280;50680;52.626;-8.668;2023-07-13T01:06:36;101426.31;;;14.44;100.00
64352;BME280;50680;52.626;-8.668;2023-07-13T01:09:04;101428.88;;;14.45;100.00
64352;BME280;50680;52.626;-8.668;2023-07-13T01:11:34;101427.06;;;14.46;100.00
64352;BME280;50680;52.626;-8.668;2023-07-13T01:14:02;101426.13;;;14.47;100.00
64352;BME280;50680;52.626;-8.668;2023-07-13T01:16:32;101422.53;;;14.48;100.00
64352;BME280;50680;52.626;-8.668;2023-07-13T01:18:59;101429.78;;;14.44;100.00
64352;BME280;50680;52.626;-8.668;2023-07-13T01:21:28;101428.13;;;14.43;100.00
64352;BME280;50680;52.626;-8.668;2023-07-13T01:23:57;101422.94;;;14.42;100.00
64352;BME280;50680;52.626;-8.668;2023-07-13T01:26:24;101425.69;;;14.40;100.00
64352;BME280;50680;52.626;-8.668;2023-07-13T01:28:51;101426.41;;;14.42;100.00
64352;BME280;50680;52.626;-8.668;2023-07-13T01:31:18;101426.59;;;14.39;100.00
64352;BME280;50680;52.626;-8.668;2023-07-13T01:33:48;101416.91;;;14.40;100.00
64352;BME280;50680;52.626;-8.668;2023-07-13T01:36:15;101412.56;;;14.39;100.00
64352;BME280;50680;52.626;-8.668;2023-07-13T01:38:42;101422.19;;;14.40;100.00
64352;BME280;50680;52.626;-8.668;2023-07-13T01:41:10;101424.94;;;14.38;100.00
64352;BME280;50680;52.626;-8.668;2023-07-13T01:43:37;101412.69;;;14.37;100.00
64352;BME280;50680;52.626;-8.668;2023-07-13T01:46:04;101423.13;;;14.39;100.00
64352;BME280;50680;52.626;-8.668;2023-07-13T01:48:47;101411.84;;;14.37;100.00
64352;BME280;50680;52.626;-8.668;2023-07-13T01:51:15;101411.75;;;14.38;100.00
64352;BME280;50680;52.626;-8.668;2023-07-13T01:53:42;101409.19;;;14.37;100.00
64352;BME280;50680;52.626;-8.668;2023-07-13T01:56:09;101412.88;;;14.34;100.00
64352;BME280;50680;52.626;-8.668;2023-07-13T01:58:37;101418.78;;;14.79;100.00
64352;BME280;50680;52.626;-8.668;2023-07-13T02:01:04;101413.97;;;14.99;100.00
64352;BME280;50680;52.626;-8.668;2023-07-13T02:03:31;101414.16;;;14.96;100.00
64352;BME280;50680;52.626;-8.668;2023-07-13T02:05:58;101411.94;;;14.90;100.00
64352;BME280;50680;52.626;-8.668;2023-07-13T02:08:25;101409.06;;;14.80;100.00
64352;BME280;50680;52.626;-8.668;2023-07-13T02:10:52;101403.44;;;14.72;100.00
64352;BME280;50680;52.626;-8.668;2023-07-13T02:13:19;101406.19;;;14.70;100.00
64352;BME280;50680;52.626;-8.668;2023-07-13T02:15:50;101399.31;;;14.68;100.00
64352;BME280;50680;52.626;-8.668;2023-07-13T02:18:17;101402.06;;;14.66;100.00
64352;BME280;50680;52.626;-8.668;2023-07-13T02:20:44;101392.75;;;14.60;100.00
64352;BME280;50680;52.626;-8.668;2023-07-13T02:23:11;101388.13;;;14.49;100.00
64352;BME280;50680;52.626;-8.668;2023-07-13T02:25:38;101391.38;;;14.40;100.00
64352;BME280;50680;52.626;-8.668;2023-07-13T02:28:05;101390.19;;;14.32;100.00
64352;BME280;50680;52.626;-8.668;2023-07-13T02:30:34;101389.06;;;14.21;100.00
64352;BME280;50680;52.626;-8.668;2023-07-13T02:33:01;101384.03;;;14.04;100.00
64352;BME280;50680;52.626;-8.668;2023-07-13T02:35:28;101386.69;;;13.89;100.00
64352;BME280;50680;52.626;-8.668;2023-07-13T02:37:55;101381.44;;;13.89;100.00
64352;BME280;50680;52.626;-8.668;2023-07-13T02:40:22;101382.84;;;13.81;100.00
64352;BME280;50680;52.626;-8.668;2023-07-13T02:42:49;101389.72;;;13.69;100.00
64352;BME280;50680;52.626;-8.668;2023-07-13T02:45:16;101385.31;;;13.55;100.00
64352;BME280;50680;52.626;-8.668;2023-07-13T02:47:43;101386.50;;;13.49;100.00
64352;BME280;50680;52.626;-8.668;2023-07-13T02:50:10;101383.41;;;13.43;100.00
64352;BME280;50680;52.626;-8.668;2023-07-13T02:52:37;101381.88;;;13.39;100.00
64352;BME280;50680;52.626;-8.668;2023-07-13T02:55:04;101387.53;;;13.32;100.00
64352;BME280;50680;52.626;-8.668;2023-07-13T02:57:31;101373.28;;;13.21;100.00
64352;BME280;50680;52.626;-8.668;2023-07-13T03:00:00;101386.22;;;13.09;100.00
64352;BME280;50680;52.626;-8.668;2023-07-13T03:02:27;101383.97;;;13.03;100.00
64352;BME280;50680;52.626;-8.668;2023-07-13T03:04:55;101385.63;;;12.90;100.00
64352;BME280;50680;52.626;-8.668;2023-07-13T03:07:23;101377.25;;;12.83;100.00
64352;BME280;50680;52.626;-8.668;2023-07-13T03:09:54;101375.66;;;12.81;100.00
64352;BME280;50680;52.626;-8.668;2023-07-13T03:12:22;101374.41;;;12.72;100.00
64352;BME280;50680;52.626;-8.668;2023-07-13T03:14:50;101369.22;;;12.70;100.00
64352;BME280;50680;52.626;-8.668;2023-07-13T03:17:17;101367.50;;;12.69;100.00
64352;BME280;50680;52.626;-8.668;2023-07-13T03:19:44;101376.78;;;12.60;100.00
64352;BME280;50680;52.626;-8.668;2023-07-13T03:22:11;101377.91;;;12.56;100.00
64352;BME280;50680;52.626;-8.668;2023-07-13T03:24:38;101380.78;;;12.52;100.00
64352;BME280;50680;52.626;-8.668;2023-07-13T03:27:06;101382.25;;;12.41;100.00
64352;BME280;50680;52.626;-8.668;2023-07-13T03:29:33;101386.22;;;12.33;100.00
64352;BME280;50680;52.626;-8.668;2023-07-13T03:31:59;101379.72;;;12.24;100.00
64352;BME280;50680;52.626;-8.668;2023-07-13T03:34:27;101385.41;;;12.16;100.00
64352;BME280;50680;52.626;-8.668;2023-07-13T03:36:54;101384.09;;;12.08;100.00
64352;BME280;50680;52.626;-8.668;2023-07-13T03:39:22;101376.66;;;12.00;100.00
64352;BME280;50680;52.626;-8.668;2023-07-13T03:41:49;101379.97;;;12.03;100.00
64352;BME280;50680;52.626;-8.668;2023-07-13T03:44:17;101380.03;;;12.02;100.00
64352;BME280;50680;52.626;-8.668;2023-07-13T03:46:45;101372.50;;;11.96;100.00
64352;BME280;50680;52.626;-8.668;2023-07-13T03:49:12;101384.03;;;11.93;100.00
64352;BME280;50680;52.626;-8.668;2023-07-13T03:51:39;101388.44;;;11.93;100.00
64352;BME280;50680;52.626;-8.668;2023-07-13T03:54:06;101388.53;;;11.91;100.00
64352;BME280;50680;52.626;-8.668;2023-07-13T03:56:33;101387.41;;;11.95;100.00
64352;BME280;50680;52.626;-8.668;2023-07-13T03:59:00;101384.78;;;11.95;100.00
64352;BME280;50680;52.626;-8.668;2023-07-13T04:01:27;101382.34;;;11.92;100.00
64352;BME280;50680;52.626;-8.668;2023-07-13T04:03:55;101382.34;;;11.92;100.00
64352;BME280;50680;52.626;-8.668;2023-07-13T04:06:26;101398.13;;;11.92;100.00
64352;BME280;50680;52.626;-8.668;2023-07-13T04:08:55;101394.84;;;11.87;100.00
64352;BME280;50680;52.626;-8.668;2023-07-13T04:11:24;101403.56;;;11.88;100.00
64352;BME280;50680;52.626;-8.668;2023-07-13T04:13:51;101400.25;;;11.84;100.00
64352;BME280;50680;52.626;-8.668;2023-07-13T04:16:19;101393.97;;;11.71;100.00
64352;BME280;50680;52.626;-8.668;2023-07-13T04:18:47;101407.00;;;11.72;100.00
64352;BME280;50680;52.626;-8.668;2023-07-13T04:21:15;101400.56;;;11.62;100.00
64352;BME280;50680;52.626;-8.668;2023-07-13T04:23:42;101406.22;;;11.54;100.00
64352;BME280;50680;52.626;-8.668;2023-07-13T04:26:10;101414.25;;;11.51;100.00
64352;BME280;50680;52.626;-8.668;2023-07-13T04:28:37;101414.41;;;11.48;100.00
64352;BME280;50680;52.626;-8.668;2023-07-13T04:31:04;101417.88;;;11.48;100.00
64352;BME280;50680;52.626;-8.668;2023-07-13T04:33:31;101417.94;;;11.47;100.00
64352;BME280;50680;52.626;-8.668;2023-07-13T04:35:58;101420.50;;;11.48;100.00
64352;BME280;50680;52.626;-8.668;2023-07-13T04:38:28;101422.97;;;11.52;100.00
64352;BME280;50680;52.626;-8.668;2023-07-13T04:40:56;101426.13;;;11.58;100.00
64352;BME280;50680;52.626;-8.668;2023-07-13T04:43:24;101424.25;;;11.60;100.00
64352;BME280;50680;52.626;-8.668;2023-07-13T04:45:52;101429.97;;;11.69;100.00
64352;BME280;50680;52.626;-8.668;2023-07-13T04:48:20;101429.63;;;11.75;100.00
64352;BME280;50680;52.626;-8.668;2023-07-13T04:50:55;101433.59;;;11.83;100.00
64352;BME280;50680;52.626;-8.668;2023-07-13T04:53:22;101435.88;;;11.90;100.00
64352;BME280;50680;52.626;-8.668;2023-07-13T04:55:50;101427.44;;;12.00;100.00
64352;BME280;50680;52.626;-8.668;2023-07-13T04:58:17;101436.44;;;12.12;100.00
64352;BME280;50680;52.626;-8.668;2023-07-13T05:00:44;101422.91;;;12.20;100.00
64352;BME280;50680;52.626;-8.668;2023-07-13T05:03:11;101429.91;;;12.35;100.00
64352;BME280;50680;52.626;-8.668;2023-07-13T05:05:38;101436.19;;;12.49;100.00
64352;BME280;50680;52.626;-8.668;2023-07-13T05:08:05;101433.91;;;12.58;100.00
64352;BME280;50680;52.626;-8.668;2023-07-13T05:10:35;101434.78;;;12.73;100.00
64352;BME280;50680;52.626;-8.668;2023-07-13T05:13:02;101434.22;;;12.84;100.00
64352;BME280;50680;52.626;-8.668;2023-07-13T05:15:29;101429.44;;;12.91;100.00
64352;BME280;50680;52.626;-8.668;2023-07-13T05:17:56;101438.47;;;13.01;100.00
64352;BME280;50680;52.626;-8.668;2023-07-13T05:20:24;101434.38;;;13.11;100.00
64352;BME280;50680;52.626;-8.668;2023-07-13T05:22:50;101432.91;;;13.22;100.00
64352;BME280;50680;52.626;-8.668;2023-07-13T05:25:17;101436.88;;;13.29;100.00
64352;BME280;50680;52.626;-8.668;2023-07-13T05:27:44;101448.00;;;13.34;100.00
64352;BME280;50680;52.626;-8.668;2023-07-13T05:30:13;101443.44;;;13.38;100.00
64352;BME280;50680;52.626;-8.668;2023-07-13T05:32:40;101448.31;;;13.44;100.00
64352;BME280;50680;52.626;-8.668;2023-07-13T05:35:08;101442.69;;;13.50;100.00
64352;BME280;50680;52.626;-8.668;2023-07-13T05:37:37;101447.47;;;13.58;100.00
64352;BME280;50680;52.626;-8.668;2023-07-13T05:40:04;101447.47;;;13.72;100.00
64352;BME280;50680;52.626;-8.668;2023-07-13T05:42:31;101449.59;;;13.81;100.00
64352;BME280;50680;52.626;-8.668;2023-07-13T05:44:59;101452.38;;;13.92;100.00
64352;BME280;50680;52.626;-8.668;2023-07-13T05:47:26;101457.03;;;14.03;100.00
64352;BME280;50680;52.626;-8.668;2023-07-13T05:49:53;101456.16;;;14.17;100.00
64352;BME280;50680;52.626;-8.668;2023-07-13T05:52:20;101452.81;;;14.42;100.00
64352;BME280;50680;52.626;-8.668;2023-07-13T05:54:47;101452.88;;;14.55;100.00
64352;BME280;50680;52.626;-8.668;2023-07-13T05:57:14;101459.00;;;14.56;100.00
64352;BME280;50680;52.626;-8.668;2023-07-13T05:59:42;101452.88;;;14.55;100.00
64352;BME280;50680;52.626;-8.668;2023-07-13T06:02:09;101456.25;;;14.57;100.00
64352;BME280;50680;52.626;-8.668;2023-07-13T06:04:37;101454.41;;;14.59;100.00
64352;BME280;50680;52.626;-8.668;2023-07-13T06:07:04;101461.38;;;14.60;100.00
64352;BME280;50680;52.626;-8.668;2023-07-13T06:09:31;101464.94;;;14.59;100.00
64352;BME280;50680;52.626;-8.668;2023-07-13T06:11:58;101462.88;;;14.64;100.00
64352;BME280;50680;52.626;-8.668;2023-07-13T06:14:25;101470.59;;;14.68;100.00
64352;BME280;50680;52.626;-8.668;2023-07-13T06:16:52;101474.91;;;14.69;100.00
64352;BME280;50680;52.626;-8.668;2023-07-13T06:19:19;101471.25;;;14.71;100.00
64352;BME280;50680;52.626;-8.668;2023-07-13T06:21:47;101480.63;;;14.75;100.00
64352;BME280;50680;52.626;-8.668;2023-07-13T06:24:13;101481.09;;;14.82;100.00
64352;BME280;50680;52.626;-8.668;2023-07-13T06:26:40;101480.25;;;14.81;100.00
64352;BME280;50680;52.626;-8.668;2023-07-13T06:29:07;101474.09;;;14.81;100.00
64352;BME280;50680;52.626;-8.668;2023-07-13T06:31:34;101474.75;;;14.84;100.00
64352;BME280;50680;52.626;-8.668;2023-07-13T06:34:01;101475.19;;;14.91;100.00
64352;BME280;50680;52.626;-8.668;2023-07-13T06:36:29;101469.09;;;14.91;100.00
64352;BME280;50680;52.626;-8.668;2023-07-13T06:38:56;101478.72;;;14.92;100.00
64352;BME280;50680;52.626;-8.668;2023-07-13T06:41:23;101471.81;;;14.89;100.00
64352;BME280;50680;52.626;-8.668;2023-07-13T06:43:53;101469.91;;;14.91;100.00
64352;BME280;50680;52.626;-8.668;2023-07-13T06:46:22;101476.63;;;14.97;100.00
64352;BME280;50680;52.626;-8.668;2023-07-13T06:48:49;101469.53;;;14.97;100.00
64352;BME280;50680;52.626;-8.668;2023-07-13T06:51:16;101480.09;;;14.97;100.00
64352;BME280;50680;52.626;-8.668;2023-07-13T06:53:43;101473.75;;;15.00;100.00
64352;BME280;50680;52.626;-8.668;2023-07-13T06:56:11;101479.47;;;15.07;100.00
64352;BME280;50680;52.626;-8.668;2023-07-13T06:58:38;101477.38;;;15.12;100.00
64352;BME280;50680;52.626;-8.668;2023-07-13T07:01:05;101480.38;;;15.20;100.00
64352;BME280;50680;52.626;-8.668;2023-07-13T07:03:34;101485.03;;;15.29;100.00
64352;BME280;50680;52.626;-8.668;2023-07-13T07:06:22;101490.66;;;15.37;100.00
64352;BME280;50680;52.626;-8.668;2023-07-13T07:08:52;101481.88;;;15.50;100.00
64352;BME280;50680;52.626;-8.668;2023-07-13T07:11:24;101485.50;;;15.61;100.00
64352;BME280;50680;52.626;-8.668;2023-07-13T07:13:52;101485.63;;;15.73;100.00
64352;BME280;50680;52.626;-8.668;2023-07-13T07:16:20;101487.66;;;15.82;100.00
64352;BME280;50680;52.626;-8.668;2023-07-13T07:18:47;101488.19;;;15.87;100.00
64352;BME280;50680;52.626;-8.668;2023-07-13T07:21:14;101486.13;;;16.04;100.00
64352;BME280;50680;52.626;-8.668;2023-07-13T07:23:42;101479.75;;;16.32;100.00
64352;BME280;50680;52.626;-8.668;2023-07-13T07:26:10;101474.75;;;16.64;100.00
64352;BME280;50680;52.626;-8.668;2023-07-13T07:28:37;101476.19;;;16.81;100.00
64352;BME280;50680;52.626;-8.668;2023-07-13T07:31:09;101483.16;;;16.95;100.00
64352;BME280;50680;52.626;-8.668;2023-07-13T07:33:39;101487.00;;;16.91;100.00
64352;BME280;50680;52.626;-8.668;2023-07-13T07:36:06;101479.56;;;16.83;100.00
64352;BME280;50680;52.626;-8.668;2023-07-13T07:38:36;101483.19;;;16.82;100.00
64352;BME280;50680;52.626;-8.668;2023-07-13T07:41:04;101476.88;;;16.72;100.00
64352;BME280;50680;52.626;-8.668;2023-07-13T07:43:34;101486.38;;;16.74;100.00
64352;BME280;50680;52.626;-8.668;2023-07-13T07:46:02;101481.25;;;16.60;100.00
64352;BME280;50680;52.626;-8.668;2023-07-13T07:48:30;101487.97;;;16.53;100.00
64352;BME280;50680;52.626;-8.668;2023-07-13T07:50:57;101484.38;;;16.41;100.00
64352;BME280;50680;52.626;-8.668;2023-07-13T07:53:24;101492.22;;;16.30;100.00
64352;BME280;50680;52.626;-8.668;2023-07-13T07:55:51;101484.66;;;16.12;100.00
64352;BME280;50680;52.626;-8.668;2023-07-13T07:58:21;101494.63;;;15.96;100.00
64352;BME280;50680;52.626;-8.668;2023-07-13T08:00:50;101488.06;;;16.02;100.00
64352;BME280;50680;52.626;-8.668;2023-07-13T08:03:20;101489.13;;;15.86;100.00
64352;BME280;50680;52.626;-8.668;2023-07-13T08:05:53;101487.97;;;15.77;100.00
64352;BME280;50680;52.626;-8.668;2023-07-13T08:08:40;101499.91;;;15.96;100.00
64352;BME280;50680;52.626;-8.668;2023-07-13T08:11:09;101502.47;;;15.97;100.00
64352;BME280;50680;52.626;-8.668;2023-07-13T08:13:40;101496.72;;;16.16;100.00
64352;BME280;50680;52.626;-8.668;2023-07-13T08:16:07;101493.28;;;16.40;100.00
64352;BME280;50680;52.626;-8.668;2023-07-13T08:18:34;101493.56;;;16.48;100.00
64352;BME280;50680;52.626;-8.668;2023-07-13T08:21:05;101495.69;;;16.80;100.00
64352;BME280;50680;52.626;-8.668;2023-07-13T08:23:33;101489.00;;;17.12;100.00
64352;BME280;50680;52.626;-8.668;2023-07-13T08:26:00;101495.00;;;17.38;100.00
64352;BME280;50680;52.626;-8.668;2023-07-13T08:28:28;101494.81;;;17.63;100.00
64352;BME280;50680;52.626;-8.668;2023-07-13T08:31:04;101486.75;;;17.65;100.00
64352;BME280;50680;52.626;-8.668;2023-07-13T08:33:31;101485.06;;;17.75;100.00
64352;BME280;50680;52.626;-8.668;2023-07-13T08:35:58;101483.75;;;17.92;100.00
64352;BME280;50680;52.626;-8.668;2023-07-13T08:38:25;101487.03;;;17.96;100.00
64352;BME280;50680;52.626;-8.668;2023-07-13T08:40:55;101487.13;;;17.94;100.00
64352;BME280;50680;52.626;-8.668;2023-07-13T08:43:30;101482.16;;;17.78;100.00
64352;BME280;50680;52.626;-8.668;2023-07-13T08:46:19;101480.59;;;17.76;100.00
64352;BME280;50680;52.626;-8.668;2023-07-13T08:49:23;101471.16;;;17.72;100.00
64352;BME280;50680;52.626;-8.668;2023-07-13T08:51:51;101481.78;;;17.72;100.00
64352;BME280;50680;52.626;-8.668;2023-07-13T08:54:40;101472.16;;;17.82;100.00
64352;BME280;50680;52.626;-8.668;2023-07-13T08:57:18;101473.75;;;18.18;100.00
64352;BME280;50680;52.626;-8.668;2023-07-13T08:59:46;101460.66;;;18.49;100.00
64352;BME280;50680;52.626;-8.668;2023-07-13T09:05:14;101465.50;;;19.20;100.00
64352;BME280;50680;52.626;-8.668;2023-07-13T09:10:43;101463.28;;;19.46;100.00
64352;BME280;50680;52.626;-8.668;2023-07-13T09:13:23;101461.63;;;19.45;100.00
64352;BME280;50680;52.626;-8.668;2023-07-13T09:15:53;101456.09;;;19.37;100.00
64352;BME280;50680;52.626;-8.668;2023-07-13T09:18:41;101453.25;;;19.29;100.00
64352;BME280;50680;52.626;-8.668;2023-07-13T09:21:15;101457.94;;;19.15;100.00
64352;BME280;50680;52.626;-8.668;2023-07-13T09:23:43;101458.19;;;19.12;100.00
64352;BME280;50680;52.626;-8.668;2023-07-13T09:26:18;101461.13;;;18.98;100.00
64352;BME280;50680;52.626;-8.668;2023-07-13T09:28:48;101461.19;;;18.87;100.00
64352;BME280;50680;52.626;-8.668;2023-07-13T09:31:23;101458.00;;;18.60;100.00
64352;BME280;50680;52.626;-8.668;2023-07-13T09:33:51;101457.75;;;18.64;100.00
64352;BME280;50680;52.626;-8.668;2023-07-13T09:36:25;101468.84;;;18.57;100.00
64352;BME280;50680;52.626;-8.668;2023-07-13T09:46:43;101469.97;;;18.32;100.00
64352;BME280;50680;52.626;-8.668;2023-07-13T09:49:11;101478.56;;;18.25;100.00
64352;BME280;50680;52.626;-8.668;2023-07-13T09:51:40;101474.59;;;18.19;100.00
64352;BME280;50680;52.626;-8.668;2023-07-13T09:54:23;101480.63;;;18.10;100.00
64352;BME280;50680;52.626;-8.668;2023-07-13T09:56:57;101474.59;;;18.19;100.00
64352;BME280;50680;52.626;-8.668;2023-07-13T09:59:34;101477.84;;;18.11;100.00
64352;BME280;50680;52.626;-8.668;2023-07-13T10:02:01;101475.91;;;18.13;100.00
64352;BME280;50680;52.626;-8.668;2023-07-13T10:04:33;101482.22;;;18.12;100.00
64352;BME280;50680;52.626;-8.668;2023-07-13T10:07:06;101492.69;;;18.25;100.00
64352;BME280;50680;52.626;-8.668;2023-07-13T10:09:54;101478.84;;;18.10;100.00
64352;BME280;50680;52.626;-8.668;2023-07-13T10:12:22;101481.22;;;18.13;100.00
64352;BME280;50680;52.626;-8.668;2023-07-13T10:14:57;101482.56;;;18.08;100.00
64352;BME280;50680;52.626;-8.668;2023-07-13T10:17:45;101486.81;;;18.10;100.00
64352;BME280;50680;52.626;-8.668;2023-07-13T10:20:14;101481.25;;;18.02;100.00
64352;BME280;50680;52.626;-8.668;2023-07-13T10:23:00;101487.16;;;18.06;100.00
64352;BME280;50680;52.626;-8.668;2023-07-13T10:25:34;101488.22;;;18.14;100.00
64352;BME280;50680;52.626;-8.668;2023-07-13T10:28:25;101482.78;;;18.27;100.00
64352;BME280;50680;52.626;-8.668;2023-07-13T10:30:55;101484.69;;;18.48;100.00
64352;BME280;50680;52.626;-8.668;2023-07-13T10:33:23;101484.91;;;18.56;100.00
64352;BME280;50680;52.626;-8.668;2023-07-13T10:36:03;101485.97;;;18.65;100.00
64352;BME280;50680;52.626;-8.668;2023-07-13T10:38:33;101494.75;;;18.76;100.00
64352;BME280;50680;52.626;-8.668;2023-07-13T10:41:06;101476.66;;;18.70;100.00
64352;BME280;50680;52.626;-8.668;2023-07-13T10:43:45;101475.94;;;18.79;100.00
64352;BME280;50680;52.626;-8.668;2023-07-13T10:46:15;101480.94;;;19.05;100.00
64352;BME280;50680;52.626;-8.668;2023-07-13T10:48:45;101489.09;;;19.13;100.00
64352;BME280;50680;52.626;-8.668;2023-07-13T10:51:16;101480.41;;;19.11;100.00
64352;BME280;50680;52.626;-8.668;2023-07-13T10:53:44;101474.13;;;19.12;100.00
64352;BME280;50680;52.626;-8.668;2023-07-13T10:56:29;101474.72;;;19.16;100.00
64352;BME280;50680;52.626;-8.668;2023-07-13T11:04:20;101473.34;;;19.22;100.00
64352;BME280;50680;52.626;-8.668;2023-07-13T11:06:50;101467.53;;;19.28;100.00
64352;BME280;50680;52.626;-8.668;2023-07-13T11:09:37;101468.38;;;19.28;100.00
64352;BME280;50680;52.626;-8.668;2023-07-13T11:25:35;101455.00;;;19.61;100.00
64352;BME280;50680;52.626;-8.668;2023-07-13T11:28:14;101450.00;;;19.46;100.00
64352;BME280;50680;52.626;-8.668;2023-07-13T11:33:22;101448.38;;;19.13;100.00
64352;BME280;50680;52.626;-8.668;2023-07-13T11:38:38;101447.03;;;19.40;100.00
64352;BME280;50680;52.626;-8.668;2023-07-13T11:41:19;101449.47;;;19.52;100.00
64352;BME280;50680;52.626;-8.668;2023-07-13T11:43:53;101449.22;;;19.56;100.00
64352;BME280;50680;52.626;-8.668;2023-07-13T11:46:26;101440.09;;;19.48;100.00
64352;BME280;50680;52.626;-8.668;2023-07-13T11:48:53;101451.28;;;19.31;100.00
64352;BME280;50680;52.626;-8.668;2023-07-13T11:51:25;101444.19;;;19.10;100.00
64352;BME280;50680;52.626;-8.668;2023-07-13T11:53:54;101443.91;;;19.13;100.00
64352;BME280;50680;52.626;-8.668;2023-07-13T11:56:25;101442.84;;;18.84;100.00
64352;BME280;50680;52.626;-8.668;2023-07-13T11:58:54;101440.88;;;18.86;100.00
64352;BME280;50680;52.626;-8.668;2023-07-13T12:01:25;101447.47;;;19.03;100.00
64352;BME280;50680;52.626;-8.668;2023-07-13T12:03:53;101438.72;;;18.79;100.00
64352;BME280;50680;52.626;-8.668;2023-07-13T12:06:46;101441.63;;;18.76;100.00
64352;BME280;50680;52.626;-8.668;2023-07-13T12:09:19;101436.25;;;18.99;100.00
64352;BME280;50680;52.626;-8.668;2023-07-13T12:11:51;101429.69;;;19.03;100.00
64352;BME280;50680;52.626;-8.668;2023-07-13T12:14:19;101435.66;;;19.38;100.00
64352;BME280;50680;52.626;-8.668;2023-07-13T12:16:46;101425.72;;;19.61;100.00
64352;BME280;50680;52.626;-8.668;2023-07-13T12:19:20;101435.66;;;19.80;100.00
64352;BME280;50680;52.626;-8.668;2023-07-13T12:21:48;101426.34;;;20.05;100.00
64352;BME280;50680;52.626;-8.668;2023-07-13T12:24:18;101418.81;;;20.20;100.00
64352;BME280;50680;52.626;-8.668;2023-07-13T12:27:00;101414.50;;;20.28;100.00
64352;BME280;50680;52.626;-8.668;2023-07-13T12:29:28;101421.56;;;21.08;100.00
64352;BME280;50680;52.626;-8.668;2023-07-13T12:31:55;101407.31;;;21.46;100.00
64352;BME280;50680;52.626;-8.668;2023-07-13T12:34:25;101402.63;;;21.58;100.00
64352;BME280;50680;52.626;-8.668;2023-07-13T12:36:55;101403.38;;;21.78;100.00
64352;BME280;50680;52.626;-8.668;2023-07-13T12:39:37;101402.94;;;21.55;100.00
64352;BME280;50680;52.626;-8.668;2023-07-13T12:42:22;101400.38;;;21.63;100.00
64352;BME280;50680;52.626;-8.668;2023-07-13T12:45:02;101397.31;;;21.58;100.00
64352;BME280;50680;52.626;-8.668;2023-07-13T12:47:40;101395.09;;;21.34;100.00
64352;BME280;50680;52.626;-8.668;2023-07-13T12:50:15;101398.03;;;21.50;100.00
64352;BME280;50680;52.626;-8.668;2023-07-13T12:52:43;101396.69;;;21.64;100.00
64352;BME280;50680;52.626;-8.668;2023-07-13T12:55:17;101393.88;;;21.66;100.00
64352;BME280;50680;52.626;-8.668;2023-07-13T12:57:56;101389.31;;;21.86;100.00
64352;BME280;50680;52.626;-8.668;2023-07-13T13:02:57;101372.63;;;22.02;100.00
64352;BME280;50680;52.626;-8.668;2023-07-13T13:05:41;101371.28;;;22.15;100.00
64352;BME280;50680;52.626;-8.668;2023-07-13T13:08:11;101377.72;;;22.41;100.00
64352;BME280;50680;52.626;-8.668;2023-07-13T13:10:38;101372.16;;;22.34;100.00
64352;BME280;50680;52.626;-8.668;2023-07-13T13:13:05;101370.16;;;22.54;100.00
64352;BME280;50680;52.626;-8.668;2023-07-13T13:15:33;101362.44;;;22.51;100.00
64352;BME280;50680;52.626;-8.668;2023-07-13T13:17:59;101359.50;;;22.36;100.00
64352;BME280;50680;52.626;-8.668;2023-07-13T13:20:26;101362.75;;;22.30;100.00
64352;BME280;50680;52.626;-8.668;2023-07-13T13:22:54;101358.59;;;22.17;100.00
64352;BME280;50680;52.626;-8.668;2023-07-13T13:25:22;101346.91;;;22.01;100.00
64352;BME280;50680;52.626;-8.668;2023-07-13T13:27:49;101349.13;;;21.87;100.00